sensor_id;sensor_type;location;lat;lon;timestamp;P1;durP1;ratioP1;P2;durP2;ratioP2
61477;SDS011;47345;52.334;10.392;2023-10-09T00:02:09;5.90;;;2.00;;
61477;SDS011;47345;52.334;10.392;2023-10-09T00:04:42;3.90;;;2.00;;
61477;SDS011;47345;52.334;10.392;2023-10-09T00:07:14;3.40;;;1.90;;
61477;SDS011;47345;52.334;10.392;2023-10-09T00:09:45;5.00;;;2.20;;
61477;SDS011;47345;52.334;10.392;2023-10-09T00:12:16;4.00;;;2.00;;
61477;SDS011;47345;52.334;10.392;2023-10-09T00:14:51;3.80;;;1.90;;
61477;SDS011;47345;52.334;10.392;2023-10-09T00:17:26;3.70;;;2.20;;
61477;SDS011;47345;52.334;10.392;2023-10-09T00:19:59;5.00;;;2.30;;
61477;SDS011;47345;52.334;10.392;2023-10-09T00:22:45;6.00;;;2.00;;
61477;SDS011;47345;52.334;10.392;2023-10-09T00:25:16;3.40;;;2.00;;
61477;SDS011;47345;52.334;10.392;2023-10-09T00:27:57;2.40;;;1.90;;
61477;SDS011;47345;52.334;10.392;2023-10-09T00:30:30;5.70;;;1.90;;
61477;SDS011;47345;52.334;10.392;2023-10-09T00:33:04;2.30;;;1.60;;
61477;SDS011;47345;52.334;10.392;2023-10-09T00:35:37;2.80;;;1.60;;
61477;SDS011;47345;52.334;10.392;2023-10-09T00:38:22;3.50;;;2.10;;
61477;SDS011;47345;52.334;10.392;2023-10-09T00:41:01;4.30;;;2.00;;
61477;SDS011;47345;52.334;10.392;2023-10-09T00:43:38;2.90;;;1.90;;
61477;SDS011;47345;52.334;10.392;2023-10-09T00:46:11;3.50;;;2.00;;
61477;SDS011;47345;52.334;10.392;2023-10-09T00:48:53;5.10;;;2.20;;
61477;SDS011;47345;52.334;10.392;2023-10-09T00:51:25;3.30;;;1.90;;
61477;SDS011;47345;52.334;10.392;2023-10-09T00:56:42;2.20;;;1.60;;
61477;SDS011;47345;52.334;10.392;2023-10-09T00:59:20;4.30;;;1.90;;
61477;SDS011;47345;52.334;10.392;2023-10-09T01:01:53;3.60;;;2.20;;
61477;SDS011;47345;52.334;10.392;2023-10-09T01:04:25;2.80;;;1.90;;
61477;SDS011;47345;52.334;10.392;2023-10-09T01:07:00;7.70;;;2.00;;
61477;SDS011;47345;52.334;10.392;2023-10-09T01:09:38;3.00;;;2.20;;
61477;SDS011;47345;52.334;10.392;2023-10-09T01:12:12;4.00;;;1.90;;
61477;SDS011;47345;52.334;10.392;2023-10-09T01:14:46;4.90;;;2.20;;
61477;SDS011;47345;52.334;10.392;2023-10-09T01:17:22;4.90;;;2.00;;
61477;SDS011;47345;52.334;10.392;2023-10-09T01:20:05;2.80;;;1.70;;
61477;SDS011;47345;52.334;10.392;2023-10-09T01:22:44;4.20;;;2.10;;
61477;SDS011;47345;52.334;10.392;2023-10-09T01:25:18;3.70;;;1.90;;
61477;SDS011;47345;52.334;10.392;2023-10-09T01:27:49;2.70;;;1.80;;
61477;SDS011;47345;52.334;10.392;2023-10-09T01:30:20;4.10;;;2.00;;
61477;SDS011;47345;52.334;10.392;2023-10-09T01:32:51;3.90;;;1.90;;
61477;SDS011;47345;52.334;10.392;2023-10-09T01:35:25;3.90;;;2.00;;
61477;SDS011;47345;52.334;10.392;2023-10-09T01:38:00;5.70;;;2.70;;
61477;SDS011;47345;52.334;10.392;2023-10-09T01:40:38;4.10;;;2.00;;
61477;SDS011;47345;52.334;10.392;2023-10-09T01:43:09;5.00;;;2.20;;
61477;SDS011;47345;52.334;10.392;2023-10-09T01:45:41;3.30;;;2.10;;
61477;SDS011;47345;52.334;10.392;2023-10-09T01:48:14;3.30;;;2.00;;
61477;SDS011;47345;52.334;10.392;2023-10-09T01:50:52;4.50;;;1.90;;
61477;SDS011;47345;52.334;10.392;2023-10-09T01:53:22;2.70;;;2.00;;
61477;SDS011;47345;52.334;10.392;2023-10-09T01:56:01;5.80;;;2.20;;
61477;SDS011;47345;52.334;10.392;2023-10-09T01:58:43;4.60;;;2.00;;
61477;SDS011;47345;52.334;10.392;2023-10-09T02:01:14;3.30;;;2.00;;
61477;SDS011;47345;52.334;10.392;2023-10-09T02:03:45;2.50;;;2.00;;
61477;SDS011;47345;52.334;10.392;2023-10-09T02:06:19;5.70;;;2.20;;
61477;SDS011;47345;52.334;10.392;2023-10-09T02:09:01;4.00;;;2.10;;
61477;SDS011;47345;52.334;10.392;2023-10-09T02:11:34;4.00;;;1.90;;
61477;SDS011;47345;52.334;10.392;2023-10-09T02:14:09;4.20;;;2.20;;
61477;SDS011;47345;52.334;10.392;2023-10-09T02:16:48;5.70;;;2.60;;
61477;SDS011;47345;52.334;10.392;2023-10-09T02:19:32;5.30;;;2.10;;
61477;SDS011;47345;52.334;10.392;2023-10-09T02:22:03;2.00;;;1.70;;
61477;SDS011;47345;52.334;10.392;2023-10-09T02:24:40;4.20;;;1.80;;
61477;SDS011;47345;52.334;10.392;2023-10-09T02:27:42;3.00;;;2.00;;
61477;SDS011;47345;52.334;10.392;2023-10-09T02:30:21;5.40;;;2.20;;
61477;SDS011;47345;52.334;10.392;2023-10-09T02:32:56;3.80;;;2.10;;
61477;SDS011;47345;52.334;10.392;2023-10-09T02:35:34;3.70;;;1.80;;
61477;SDS011;47345;52.334;10.392;2023-10-09T02:38:06;3.40;;;2.10;;
61477;SDS011;47345;52.334;10.392;2023-10-09T02:40:42;3.80;;;2.20;;
61477;SDS011;47345;52.334;10.392;2023-10-09T02:43:27;2.90;;;1.90;;
61477;SDS011;47345;52.334;10.392;2023-10-09T02:46:01;5.00;;;1.90;;
61477;SDS011;47345;52.334;10.392;2023-10-09T02:48:41;2.90;;;2.00;;
61477;SDS011;47345;52.334;10.392;2023-10-09T02:51:16;3.50;;;2.10;;
61477;SDS011;47345;52.334;10.392;2023-10-09T02:54:00;5.70;;;2.00;;
61477;SDS011;47345;52.334;10.392;2023-10-09T02:56:47;3.10;;;1.90;;
61477;SDS011;47345;52.334;10.392;2023-10-09T02:59:24;5.30;;;2.00;;
61477;SDS011;47345;52.334;10.392;2023-10-09T03:01:55;2.00;;;1.70;;
61477;SDS011;47345;52.334;10.392;2023-10-09T03:04:27;4.60;;;1.70;;
61477;SDS011;47345;52.334;10.392;2023-10-09T03:06:58;4.20;;;1.90;;
61477;SDS011;47345;52.334;10.392;2023-10-09T03:09:31;2.90;;;1.90;;
61477;SDS011;47345;52.334;10.392;2023-10-09T03:12:03;4.90;;;2.00;;
61477;SDS011;47345;52.334;10.392;2023-10-09T03:14:38;1.90;;;1.80;;
61477;SDS011;47345;52.334;10.392;2023-10-09T03:17:09;3.50;;;2.00;;
61477;SDS011;47345;52.334;10.392;2023-10-09T03:19:40;2.80;;;1.70;;
61477;SDS011;47345;52.334;10.392;2023-10-09T03:22:11;2.70;;;1.70;;
61477;SDS011;47345;52.334;10.392;2023-10-09T03:24:42;3.30;;;2.00;;
61477;SDS011;47345;52.334;10.392;2023-10-09T03:27:18;3.00;;;1.90;;
61477;SDS011;47345;52.334;10.392;2023-10-09T03:29:49;2.90;;;2.00;;
61477;SDS011;47345;52.334;10.392;2023-10-09T03:32:22;4.40;;;1.90;;
61477;SDS011;47345;52.334;10.392;2023-10-09T03:34:53;4.70;;;2.20;;
61477;SDS011;47345;52.334;10.392;2023-10-09T03:37:27;2.60;;;1.90;;
61477;SDS011;47345;52.334;10.392;2023-10-09T03:40:03;4.70;;;2.10;;
61477;SDS011;47345;52.334;10.392;2023-10-09T03:42:35;4.80;;;2.00;;
61477;SDS011;47345;52.334;10.392;2023-10-09T03:45:10;2.80;;;1.70;;
61477;SDS011;47345;52.334;10.392;2023-10-09T03:47:53;4.60;;;2.20;;
61477;SDS011;47345;52.334;10.392;2023-10-09T03:50:37;4.20;;;2.50;;
61477;SDS011;47345;52.334;10.392;2023-10-09T03:53:11;5.50;;;2.20;;
61477;SDS011;47345;52.334;10.392;2023-10-09T03:55:41;4.30;;;2.30;;
61477;SDS011;47345;52.334;10.392;2023-10-09T03:58:12;5.60;;;2.20;;
61477;SDS011;47345;52.334;10.392;2023-10-09T04:00:47;2.20;;;2.00;;
61477;SDS011;47345;52.334;10.392;2023-10-09T04:03:19;4.90;;;2.40;;
61477;SDS011;47345;52.334;10.392;2023-10-09T04:05:52;4.90;;;2.20;;
61477;SDS011;47345;52.334;10.392;2023-10-09T04:08:24;4.40;;;2.40;;
61477;SDS011;47345;52.334;10.392;2023-10-09T04:10:58;4.40;;;2.20;;
61477;SDS011;47345;52.334;10.392;2023-10-09T04:13:32;8.30;;;4.20;;
61477;SDS011;47345;52.334;10.392;2023-10-09T04:16:03;8.30;;;3.50;;
61477;SDS011;47345;52.334;10.392;2023-10-09T04:18:48;3.90;;;2.80;;
61477;SDS011;47345;52.334;10.392;2023-10-09T04:21:20;3.60;;;2.30;;
61477;SDS011;47345;52.334;10.392;2023-10-09T04:24:03;3.90;;;2.30;;
61477;SDS011;47345;52.334;10.392;2023-10-09T04:26:50;7.10;;;2.30;;
61477;SDS011;47345;52.334;10.392;2023-10-09T04:29:25;4.60;;;2.40;;
61477;SDS011;47345;52.334;10.392;2023-10-09T04:31:56;4.10;;;2.80;;
61477;SDS011;47345;52.334;10.392;2023-10-09T04:34:28;3.00;;;2.20;;
61477;SDS011;47345;52.334;10.392;2023-10-09T04:37:04;2.60;;;2.40;;
61477;SDS011;47345;52.334;10.392;2023-10-09T04:39:52;5.50;;;2.90;;
61477;SDS011;47345;52.334;10.392;2023-10-09T04:42:39;6.70;;;2.90;;
61477;SDS011;47345;52.334;10.392;2023-10-09T04:45:25;5.40;;;2.90;;
61477;SDS011;47345;52.334;10.392;2023-10-09T04:48:14;10.50;;;3.20;;
61477;SDS011;47345;52.334;10.392;2023-10-09T04:51:00;3.80;;;2.90;;
61477;SDS011;47345;52.334;10.392;2023-10-09T04:54:02;8.30;;;3.30;;
61477;SDS011;47345;52.334;10.392;2023-10-09T04:56:42;6.50;;;4.10;;
61477;SDS011;47345;52.334;10.392;2023-10-09T04:59:20;6.70;;;3.50;;
61477;SDS011;47345;52.334;10.392;2023-10-09T05:01:53;9.20;;;3.40;;
61477;SDS011;47345;52.334;10.392;2023-10-09T05:04:27;6.00;;;3.50;;
61477;SDS011;47345;52.334;10.392;2023-10-09T05:07:09;14.40;;;7.20;;
61477;SDS011;47345;52.334;10.392;2023-10-09T05:09:52;11.20;;;4.40;;
61477;SDS011;47345;52.334;10.392;2023-10-09T05:12:38;10.00;;;4.60;;
61477;SDS011;47345;52.334;10.392;2023-10-09T05:15:14;12.30;;;6.10;;
61477;SDS011;47345;52.334;10.392;2023-10-09T05:17:46;16.40;;;8.70;;
61477;SDS011;47345;52.334;10.392;2023-10-09T05:20:24;11.00;;;6.50;;
61477;SDS011;47345;52.334;10.392;2023-10-09T05:23:12;14.20;;;5.60;;
61477;SDS011;47345;52.334;10.392;2023-10-09T05:25:54;8.70;;;4.50;;
61477;SDS011;47345;52.334;10.392;2023-10-09T05:28:27;7.10;;;4.10;;
61477;SDS011;47345;52.334;10.392;2023-10-09T05:31:16;8.90;;;4.00;;
61477;SDS011;47345;52.334;10.392;2023-10-09T05:34:01;10.60;;;5.20;;
61477;SDS011;47345;52.334;10.392;2023-10-09T05:36:34;13.80;;;5.30;;
61477;SDS011;47345;52.334;10.392;2023-10-09T05:39:05;15.40;;;6.40;;
61477;SDS011;47345;52.334;10.392;2023-10-09T05:42:09;11.80;;;5.20;;
61477;SDS011;47345;52.334;10.392;2023-10-09T05:44:46;14.40;;;6.00;;
61477;SDS011;47345;52.334;10.392;2023-10-09T05:47:40;9.70;;;6.00;;
61477;SDS011;47345;52.334;10.392;2023-10-09T05:50:21;14.80;;;6.80;;
61477;SDS011;47345;52.334;10.392;2023-10-09T05:53:05;15.30;;;7.40;;
61477;SDS011;47345;52.334;10.392;2023-10-09T05:55:37;18.40;;;7.50;;
61477;SDS011;47345;52.334;10.392;2023-10-09T05:58:38;16.10;;;8.40;;
61477;SDS011;47345;52.334;10.392;2023-10-09T06:01:42;20.70;;;10.30;;
61477;SDS011;47345;52.334;10.392;2023-10-09T06:04:31;23.10;;;11.40;;
61477;SDS011;47345;52.334;10.392;2023-10-09T06:07:17;24.40;;;13.10;;
61477;SDS011;47345;52.334;10.392;2023-10-09T06:09:52;32.50;;;14.00;;
61477;SDS011;47345;52.334;10.392;2023-10-09T06:12:25;28.30;;;13.40;;
61477;SDS011;47345;52.334;10.392;2023-10-09T06:15:21;32.90;;;14.60;;
61477;SDS011;47345;52.334;10.392;2023-10-09T06:18:19;25.00;;;13.80;;
61477;SDS011;47345;52.334;10.392;2023-10-09T06:21:01;30.70;;;14.40;;
61477;SDS011;47345;52.334;10.392;2023-10-09T06:23:59;32.80;;;14.70;;
61477;SDS011;47345;52.334;10.392;2023-10-09T06:26:43;28.20;;;14.90;;
61477;SDS011;47345;52.334;10.392;2023-10-09T06:29:36;27.40;;;14.30;;
61477;SDS011;47345;52.334;10.392;2023-10-09T06:32:18;28.60;;;14.30;;
61477;SDS011;47345;52.334;10.392;2023-10-09T06:35:02;27.50;;;12.80;;
61477;SDS011;47345;52.334;10.392;2023-10-09T06:37:50;27.40;;;13.40;;
61477;SDS011;47345;52.334;10.392;2023-10-09T06:40:51;32.50;;;13.60;;
61477;SDS011;47345;52.334;10.392;2023-10-09T06:43:44;29.10;;;14.30;;
61477;SDS011;47345;52.334;10.392;2023-10-09T06:46:21;27.40;;;13.40;;
61477;SDS011;47345;52.334;10.392;2023-10-09T06:49:08;25.10;;;12.80;;
61477;SDS011;47345;52.334;10.392;2023-10-09T06:51:57;30.80;;;13.80;;
61477;SDS011;47345;52.334;10.392;2023-10-09T06:54:43;29.90;;;13.70;;
61477;SDS011;47345;52.334;10.392;2023-10-09T06:57:19;33.70;;;14.20;;
61477;SDS011;47345;52.334;10.392;2023-10-09T07:00:13;24.30;;;11.30;;
61477;SDS011;47345;52.334;10.392;2023-10-09T07:02:58;28.00;;;13.00;;
61477;SDS011;47345;52.334;10.392;2023-10-09T07:05:39;26.20;;;12.50;;
61477;SDS011;47345;52.334;10.392;2023-10-09T07:08:29;22.50;;;11.80;;
61477;SDS011;47345;52.334;10.392;2023-10-09T07:11:06;28.20;;;12.20;;
61477;SDS011;47345;52.334;10.392;2023-10-09T07:13:56;23.00;;;12.00;;
61477;SDS011;47345;52.334;10.392;2023-10-09T07:16:30;20.50;;;11.00;;
61477;SDS011;47345;52.334;10.392;2023-10-09T07:19:07;20.40;;;10.80;;
61477;SDS011;47345;52.334;10.392;2023-10-09T07:22:00;23.60;;;11.80;;
61477;SDS011;47345;52.334;10.392;2023-10-09T07:24:31;20.30;;;11.10;;
61477;SDS011;47345;52.334;10.392;2023-10-09T07:27:11;22.50;;;11.20;;
61477;SDS011;47345;52.334;10.392;2023-10-09T07:29:42;25.60;;;11.90;;
61477;SDS011;47345;52.334;10.392;2023-10-09T07:32:16;25.40;;;11.70;;
61477;SDS011;47345;52.334;10.392;2023-10-09T07:34:49;23.40;;;12.70;;
61477;SDS011;47345;52.334;10.392;2023-10-09T07:37:25;26.60;;;13.30;;
61477;SDS011;47345;52.334;10.392;2023-10-09T07:39:59;28.70;;;13.60;;
61477;SDS011;47345;52.334;10.392;2023-10-09T07:42:35;32.50;;;13.10;;
61477;SDS011;47345;52.334;10.392;2023-10-09T07:45:13;30.30;;;13.10;;
61477;SDS011;47345;52.334;10.392;2023-10-09T07:47:57;27.10;;;13.60;;
61477;SDS011;47345;52.334;10.392;2023-10-09T07:50:36;26.50;;;13.10;;
61477;SDS011;47345;52.334;10.392;2023-10-09T07:53:09;31.90;;;14.10;;
61477;SDS011;47345;52.334;10.392;2023-10-09T07:55:54;31.30;;;13.80;;
61477;SDS011;47345;52.334;10.392;2023-10-09T07:58:26;31.20;;;14.30;;
61477;SDS011;47345;52.334;10.392;2023-10-09T08:00:58;29.60;;;14.50;;
61477;SDS011;47345;52.334;10.392;2023-10-09T08:03:36;32.90;;;14.30;;
61477;SDS011;47345;52.334;10.392;2023-10-09T08:06:07;27.90;;;13.30;;
61477;SDS011;47345;52.334;10.392;2023-10-09T08:08:52;28.20;;;14.30;;
61477;SDS011;47345;52.334;10.392;2023-10-09T08:11:50;28.00;;;14.20;;
61477;SDS011;47345;52.334;10.392;2023-10-09T08:15:03;30.50;;;14.60;;
61477;SDS011;47345;52.334;10.392;2023-10-09T08:17:50;24.30;;;13.60;;
61477;SDS011;47345;52.334;10.392;2023-10-09T08:20:22;27.10;;;13.90;;
61477;SDS011;47345;52.334;10.392;2023-10-09T08:22:54;29.40;;;14.10;;
61477;SDS011;47345;52.334;10.392;2023-10-09T08:25:25;29.80;;;14.30;;
61477;SDS011;47345;52.334;10.392;2023-10-09T08:28:00;26.70;;;12.70;;
61477;SDS011;47345;52.334;10.392;2023-10-09T08:30:49;26.40;;;13.30;;
61477;SDS011;47345;52.334;10.392;2023-10-09T08:33:31;26.30;;;12.70;;
61477;SDS011;47345;52.334;10.392;2023-10-09T08:36:14;23.70;;;12.90;;
61477;SDS011;47345;52.334;10.392;2023-10-09T08:38:51;29.90;;;13.70;;
61477;SDS011;47345;52.334;10.392;2023-10-09T08:41:26;27.90;;;12.60;;
61477;SDS011;47345;52.334;10.392;2023-10-09T08:43:58;27.10;;;13.60;;
61477;SDS011;47345;52.334;10.392;2023-10-09T08:46:31;26.70;;;12.10;;
61477;SDS011;47345;52.334;10.392;2023-10-09T08:49:05;25.60;;;13.50;;
61477;SDS011;47345;52.334;10.392;2023-10-09T08:51:38;25.00;;;12.50;;
61477;SDS011;47345;52.334;10.392;2023-10-09T08:54:10;26.80;;;13.30;;
61477;SDS011;47345;52.334;10.392;2023-10-09T08:56:43;28.00;;;13.00;;
61477;SDS011;47345;52.334;10.392;2023-10-09T08:59:19;30.40;;;13.20;;
61477;SDS011;47345;52.334;10.392;2023-10-09T09:01:50;27.50;;;13.50;;
61477;SDS011;47345;52.334;10.392;2023-10-09T09:04:37;23.30;;;13.00;;
61477;SDS011;47345;52.334;10.392;2023-10-09T09:07:22;30.80;;;13.10;;
61477;SDS011;47345;52.334;10.392;2023-10-09T09:09:57;23.60;;;12.60;;
61477;SDS011;47345;52.334;10.392;2023-10-09T09:12:32;23.20;;;12.30;;
61477;SDS011;47345;52.334;10.392;2023-10-09T09:15:10;27.20;;;13.00;;
61477;SDS011;47345;52.334;10.392;2023-10-09T09:17:47;29.40;;;13.80;;
61477;SDS011;47345;52.334;10.392;2023-10-09T09:20:23;23.20;;;12.80;;
61477;SDS011;47345;52.334;10.392;2023-10-09T09:22:58;29.40;;;13.20;;
61477;SDS011;47345;52.334;10.392;2023-10-09T09:25:42;26.40;;;13.10;;
61477;SDS011;47345;52.334;10.392;2023-10-09T09:28:16;24.90;;;13.70;;
61477;SDS011;47345;52.334;10.392;2023-10-09T09:30:49;26.20;;;13.10;;
61477;SDS011;47345;52.334;10.392;2023-10-09T09:33:20;24.30;;;12.40;;
61477;SDS011;47345;52.334;10.392;2023-10-09T09:36:08;29.00;;;13.80;;
61477;SDS011;47345;52.334;10.392;2023-10-09T09:38:39;28.30;;;13.40;;
61477;SDS011;47345;52.334;10.392;2023-10-09T09:41:16;21.80;;;13.30;;
61477;SDS011;47345;52.334;10.392;2023-10-09T09:43:53;28.00;;;13.70;;
61477;SDS011;47345;52.334;10.392;2023-10-09T09:46:25;29.50;;;13.70;;
61477;SDS011;47345;52.334;10.392;2023-10-09T09:49:02;26.10;;;13.10;;
61477;SDS011;47345;52.334;10.392;2023-10-09T09:51:44;26.00;;;12.70;;
61477;SDS011;47345;52.334;10.392;2023-10-09T09:54:15;26.90;;;13.30;;
61477;SDS011;47345;52.334;10.392;2023-10-09T09:59:24;19.40;;;11.10;;
61477;SDS011;47345;52.334;10.392;2023-10-09T10:01:58;23.60;;;11.80;;
61477;SDS011;47345;52.334;10.392;2023-10-09T10:04:35;25.90;;;12.70;;
61477;SDS011;47345;52.334;10.392;2023-10-09T10:07:08;23.40;;;12.30;;
61477;SDS011;47345;52.334;10.392;2023-10-09T10:09:44;22.50;;;11.30;;
61477;SDS011;47345;52.334;10.392;2023-10-09T10:12:16;25.80;;;12.20;;
61477;SDS011;47345;52.334;10.392;2023-10-09T10:18:55;19.90;;;11.00;;
61477;SDS011;47345;52.334;10.392;2023-10-09T10:21:35;22.80;;;10.40;;
61477;SDS011;47345;52.334;10.392;2023-10-09T10:27:23;22.90;;;10.80;;
61477;SDS011;47345;52.334;10.392;2023-10-09T10:33:04;19.60;;;10.20;;
61477;SDS011;47345;52.334;10.392;2023-10-09T10:35:40;20.60;;;9.90;;
61477;SDS011;47345;52.334;10.392;2023-10-09T10:38:23;21.00;;;10.00;;
61477;SDS011;47345;52.334;10.392;2023-10-09T10:41:10;20.80;;;9.80;;
61477;SDS011;47345;52.334;10.392;2023-10-09T10:43:44;21.00;;;10.40;;
61477;SDS011;47345;52.334;10.392;2023-10-09T10:46:29;18.80;;;10.80;;
61477;SDS011;47345;52.334;10.392;2023-10-09T10:49:02;17.70;;;10.00;;
61477;SDS011;47345;52.334;10.392;2023-10-09T10:51:48;22.70;;;11.50;;
61477;SDS011;47345;52.334;10.392;2023-10-09T10:54:29;20.80;;;10.80;;
61477;SDS011;47345;52.334;10.392;2023-10-09T10:57:36;15.80;;;10.60;;
61477;SDS011;47345;52.334;10.392;2023-10-09T11:00:21;17.80;;;10.60;;
61477;SDS011;47345;52.334;10.392;2023-10-09T11:03:09;16.50;;;9.80;;
61477;SDS011;47345;52.334;10.392;2023-10-09T11:05:48;19.30;;;11.20;;
61477;SDS011;47345;52.334;10.392;2023-10-09T11:08:25;18.00;;;10.60;;
61477;SDS011;47345;52.334;10.392;2023-10-09T11:13:47;23.70;;;13.50;;
61477;SDS011;47345;52.334;10.392;2023-10-09T11:16:22;19.50;;;11.30;;
61477;SDS011;47345;52.334;10.392;2023-10-09T11:19:10;19.90;;;10.90;;
61477;SDS011;47345;52.334;10.392;2023-10-09T11:21:51;22.20;;;11.50;;
61477;SDS011;47345;52.334;10.392;2023-10-09T11:24:45;22.40;;;12.00;;
61477;SDS011;47345;52.334;10.392;2023-10-09T11:27:31;20.00;;;11.20;;
61477;SDS011;47345;52.334;10.392;2023-10-09T11:30:08;18.60;;;11.20;;
61477;SDS011;47345;52.334;10.392;2023-10-09T11:32:49;24.70;;;10.70;;
61477;SDS011;47345;52.334;10.392;2023-10-09T11:35:32;17.90;;;11.00;;
61477;SDS011;47345;52.334;10.392;2023-10-09T11:38:05;17.80;;;10.80;;
61477;SDS011;47345;52.334;10.392;2023-10-09T11:40:49;16.80;;;9.60;;
61477;SDS011;47345;52.334;10.392;2023-10-09T11:43:48;16.90;;;8.90;;
61477;SDS011;47345;52.334;10.392;2023-10-09T11:46:25;18.10;;;10.20;;
61477;SDS011;47345;52.334;10.392;2023-10-09T11:49:17;16.20;;;9.60;;
61477;SDS011;47345;52.334;10.392;2023-10-09T11:52:12;13.40;;;8.80;;
61477;SDS011;47345;52.334;10.392;2023-10-09T11:55:05;17.90;;;8.80;;
61477;SDS011;47345;52.334;10.392;2023-10-09T11:57:42;15.80;;;9.60;;
61477;SDS011;47345;52.334;10.392;2023-10-09T12:00:13;13.50;;;7.80;;
61477;SDS011;47345;52.334;10.392;2023-10-09T12:02:56;19.50;;;8.70;;
61477;SDS011;47345;52.334;10.392;2023-10-09T12:05:33;13.90;;;8.40;;
61477;SDS011;47345;52.334;10.392;2023-10-09T12:08:05;16.20;;;9.30;;
61477;SDS011;47345;52.334;10.392;2023-10-09T12:10:36;16.30;;;9.70;;
61477;SDS011;47345;52.334;10.392;2023-10-09T12:13:08;16.80;;;10.20;;
61477;SDS011;47345;52.334;10.392;2023-10-09T12:15:38;16.30;;;9.00;;
61477;SDS011;47345;52.334;10.392;2023-10-09T12:18:13;17.50;;;10.30;;
61477;SDS011;47345;52.334;10.392;2023-10-09T12:20:44;12.70;;;8.80;;
61477;SDS011;47345;52.334;10.392;2023-10-09T12:23:19;14.50;;;9.10;;
61477;SDS011;47345;52.334;10.392;2023-10-09T12:25:55;16.70;;;9.30;;
61477;SDS011;47345;52.334;10.392;2023-10-09T12:28:27;16.10;;;9.10;;
61477;SDS011;47345;52.334;10.392;2023-10-09T12:31:00;12.10;;;8.30;;
61477;SDS011;47345;52.334;10.392;2023-10-09T12:33:31;12.60;;;8.90;;
61477;SDS011;47345;52.334;10.392;2023-10-09T12:36:10;13.00;;;8.90;;
61477;SDS011;47345;52.334;10.392;2023-10-09T12:38:48;16.70;;;8.50;;
61477;SDS011;47345;52.334;10.392;2023-10-09T12:41:21;16.10;;;8.20;;
61477;SDS011;47345;52.334;10.392;2023-10-09T12:43:55;14.50;;;9.10;;
61477;SDS011;47345;52.334;10.392;2023-10-09T12:46:26;15.20;;;9.30;;
61477;SDS011;47345;52.334;10.392;2023-10-09T12:49:06;13.70;;;8.60;;
61477;SDS011;47345;52.334;10.392;2023-10-09T12:51:38;17.80;;;10.30;;
61477;SDS011;47345;52.334;10.392;2023-10-09T12:54:08;12.00;;;8.70;;
61477;SDS011;47345;52.334;10.392;2023-10-09T12:56:42;13.40;;;8.00;;
61477;SDS011;47345;52.334;10.392;2023-10-09T12:59:16;19.70;;;9.30;;
61477;SDS011;47345;52.334;10.392;2023-10-09T13:01:48;15.20;;;9.50;;
61477;SDS011;47345;52.334;10.392;2023-10-09T13:04:20;15.90;;;9.60;;
61477;SDS011;47345;52.334;10.392;2023-10-09T13:06:51;12.90;;;8.80;;
61477;SDS011;47345;52.334;10.392;2023-10-09T13:09:29;11.80;;;7.90;;
61477;SDS011;47345;52.334;10.392;2023-10-09T13:12:04;13.30;;;8.80;;
61477;SDS011;47345;52.334;10.392;2023-10-09T13:14:35;14.50;;;8.40;;
61477;SDS011;47345;52.334;10.392;2023-10-09T13:17:06;13.00;;;8.10;;
61477;SDS011;47345;52.334;10.392;2023-10-09T13:19:40;12.70;;;8.10;;
61477;SDS011;47345;52.334;10.392;2023-10-09T13:22:12;15.30;;;8.00;;
61477;SDS011;47345;52.334;10.392;2023-10-09T13:24:42;11.80;;;8.20;;
61477;SDS011;47345;52.334;10.392;2023-10-09T13:27:16;12.40;;;7.40;;
61477;SDS011;47345;52.334;10.392;2023-10-09T13:29:49;11.10;;;7.30;;
61477;SDS011;47345;52.334;10.392;2023-10-09T13:32:21;11.80;;;7.40;;
61477;SDS011;47345;52.334;10.392;2023-10-09T13:34:52;14.30;;;8.20;;
61477;SDS011;47345;52.334;10.392;2023-10-09T13:37:23;11.90;;;7.20;;
61477;SDS011;47345;52.334;10.392;2023-10-09T13:39:55;10.60;;;6.90;;
61477;SDS011;47345;52.334;10.392;2023-10-09T13:42:25;9.50;;;6.50;;
61477;SDS011;47345;52.334;10.392;2023-10-09T13:44:56;9.50;;;6.10;;
61477;SDS011;47345;52.334;10.392;2023-10-09T13:47:32;10.80;;;6.90;;
61477;SDS011;47345;52.334;10.392;2023-10-09T13:50:04;11.70;;;7.60;;
61477;SDS011;47345;52.334;10.392;2023-10-09T13:52:37;8.80;;;6.80;;
61477;SDS011;47345;52.334;10.392;2023-10-09T13:55:08;9.50;;;7.10;;
61477;SDS011;47345;52.334;10.392;2023-10-09T13:57:44;13.40;;;7.30;;
61477;SDS011;47345;52.334;10.392;2023-10-09T14:00:15;10.30;;;7.20;;
61477;SDS011;47345;52.334;10.392;2023-10-09T14:03:01;10.70;;;6.30;;
61477;SDS011;47345;52.334;10.392;2023-10-09T14:05:40;10.10;;;7.30;;
61477;SDS011;47345;52.334;10.392;2023-10-09T14:08:23;10.30;;;7.50;;
61477;SDS011;47345;52.334;10.392;2023-10-09T14:10:57;11.60;;;7.30;;
61477;SDS011;47345;52.334;10.392;2023-10-09T14:13:28;11.40;;;7.00;;
61477;SDS011;47345;52.334;10.392;2023-10-09T14:15:58;12.90;;;7.30;;
61477;SDS011;47345;52.334;10.392;2023-10-09T14:18:30;11.30;;;7.30;;
61477;SDS011;47345;52.334;10.392;2023-10-09T14:21:03;10.10;;;6.70;;
61477;SDS011;47345;52.334;10.392;2023-10-09T14:23:44;7.90;;;5.90;;
61477;SDS011;47345;52.334;10.392;2023-10-09T14:26:16;9.10;;;6.40;;
61477;SDS011;47345;52.334;10.392;2023-10-09T14:28:50;14.30;;;6.90;;
61477;SDS011;47345;52.334;10.392;2023-10-09T14:31:21;13.40;;;6.70;;
61477;SDS011;47345;52.334;10.392;2023-10-09T14:33:56;9.00;;;6.10;;
61477;SDS011;47345;52.334;10.392;2023-10-09T14:36:30;10.70;;;7.00;;
61477;SDS011;47345;52.334;10.392;2023-10-09T14:39:03;8.30;;;6.40;;
61477;SDS011;47345;52.334;10.392;2023-10-09T14:41:37;10.50;;;7.30;;
61477;SDS011;47345;52.334;10.392;2023-10-09T14:44:09;10.90;;;6.50;;
61477;SDS011;47345;52.334;10.392;2023-10-09T14:46:44;10.60;;;6.50;;
61477;SDS011;47345;52.334;10.392;2023-10-09T14:49:17;9.60;;;6.80;;
61477;SDS011;47345;52.334;10.392;2023-10-09T14:51:49;10.10;;;6.60;;
61477;SDS011;47345;52.334;10.392;2023-10-09T14:54:21;10.00;;;6.40;;
61477;SDS011;47345;52.334;10.392;2023-10-09T14:56:51;9.20;;;7.00;;
61477;SDS011;47345;52.334;10.392;2023-10-09T14:59:24;12.40;;;7.50;;
61477;SDS011;47345;52.334;10.392;2023-10-09T15:01:55;11.20;;;7.80;;
61477;SDS011;47345;52.334;10.392;2023-10-09T15:04:27;12.60;;;7.70;;
61477;SDS011;47345;52.334;10.392;2023-10-09T15:06:57;10.50;;;7.50;;
61477;SDS011;47345;52.334;10.392;2023-10-09T15:09:29;9.80;;;6.60;;
61477;SDS011;47345;52.334;10.392;2023-10-09T15:12:02;15.20;;;6.40;;
61477;SDS011;47345;52.334;10.392;2023-10-09T15:14:34;9.70;;;6.50;;
61477;SDS011;47345;52.334;10.392;2023-10-09T15:17:07;11.40;;;7.00;;
61477;SDS011;47345;52.334;10.392;2023-10-09T15:19:38;9.90;;;7.30;;
61477;SDS011;47345;52.334;10.392;2023-10-09T15:22:09;11.30;;;7.30;;
61477;SDS011;47345;52.334;10.392;2023-10-09T15:24:40;9.70;;;7.40;;
61477;SDS011;47345;52.334;10.392;2023-10-09T15:27:11;9.50;;;7.40;;
61477;SDS011;47345;52.334;10.392;2023-10-09T15:29:41;9.90;;;6.40;;
61477;SDS011;47345;52.334;10.392;2023-10-09T15:32:12;9.00;;;7.00;;
61477;SDS011;47345;52.334;10.392;2023-10-09T15:37:23;9.90;;;6.90;;
61477;SDS011;47345;52.334;10.392;2023-10-09T15:39:54;11.10;;;7.60;;
61477;SDS011;47345;52.334;10.392;2023-10-09T15:42:25;10.30;;;7.20;;